createdAt,value
2017-05-28T00:01:09.311Z,6.04
2017-05-28T00:03:37.648Z,5.26
2017-05-28T00:06:05.943Z,5.62
2017-05-28T00:08:34.225Z,5.82
2017-05-28T00:11:02.523Z,6.48
2017-05-28T00:13:30.847Z,5.40
2017-05-28T00:15:59.128Z,6.28
2017-05-28T00:18:27.431Z,6.80
2017-05-28T00:20:55.707Z,5.90
2017-05-28T00:23:24.004Z,5.96
2017-05-28T00:25:52.287Z,7.08
2017-05-28T00:28:20.604Z,6.26
2017-05-28T00:30:48.984Z,6.14
2017-05-28T00:33:17.279Z,6.28
2017-05-28T00:35:45.636Z,6.34
2017-05-28T00:38:13.935Z,6.88
2017-05-28T00:40:42.214Z,7.78
2017-05-28T00:43:10.563Z,6.82
2017-05-28T00:45:38.859Z,7.58
2017-05-28T00:48:07.139Z,6.36
2017-05-28T00:50:35.440Z,8.46
2017-05-28T00:53:03.720Z,7.20
2017-05-28T00:55:32.044Z,6.80
2017-05-28T00:58:00.331Z,7.58
2017-05-28T01:00:28.631Z,7.80
2017-05-28T01:02:56.977Z,6.86
2017-05-28T01:05:25.276Z,7.72
2017-05-28T01:07:53.632Z,6.22
2017-05-28T01:10:21.930Z,7.76
2017-05-28T01:12:50.208Z,7.24
2017-05-28T01:15:18.495Z,7.44
2017-05-28T01:17:46.794Z,7.08
2017-05-28T01:20:15.083Z,6.90
2017-05-28T01:22:43.393Z,6.88
2017-05-28T01:25:11.671Z,6.60
2017-05-28T01:27:39.967Z,6.72
2017-05-28T01:30:08.252Z,6.68
2017-05-28T01:32:36.552Z,7.68
2017-05-28T01:35:04.831Z,7.80
2017-05-28T01:37:33.132Z,7.98
2017-05-28T01:40:01.519Z,7.36
2017-05-28T01:42:29.816Z,8.02
2017-05-28T01:44:58.183Z,7.42
2017-05-28T01:47:26.467Z,7.48
2017-05-28T01:49:54.759Z,7.24
2017-05-28T01:52:23.035Z,6.98
2017-05-28T01:54:51.335Z,8.82
2017-05-28T01:57:19.612Z,7.08
2017-05-28T01:59:47.915Z,6.50
2017-05-28T02:02:16.207Z,7.76
2017-05-28T02:04:44.507Z,6.42
2017-05-28T02:07:12.792Z,7.68
2017-05-28T02:09:41.087Z,7.12
2017-05-28T02:12:09.370Z,6.62
2017-05-28T02:14:37.667Z,7.12
2017-05-28T02:17:05.948Z,6.82
2017-05-28T02:19:34.269Z,7.64
2017-05-28T02:22:02.611Z,7.38
2017-05-28T02:24:30.996Z,7.44
2017-05-28T02:26:59.376Z,7.32
2017-05-28T02:29:27.652Z,7.58
2017-05-28T02:31:55.960Z,7.88
2017-05-28T02:34:24.305Z,7.78
2017-05-28T02:36:52.684Z,7.82
2017-05-28T02:39:20.964Z,7.56
2017-05-28T02:41:49.264Z,6.54
2017-05-28T02:44:17.545Z,7.90
2017-05-28T02:46:45.887Z,7.60
2017-05-28T02:49:14.165Z,8.18
2017-05-28T02:51:42.544Z,7.22
2017-05-28T02:54:10.823Z,7.32
2017-05-28T02:56:39.105Z,8.00
2017-05-28T02:59:07.404Z,7.54
2017-05-28T03:01:35.687Z,6.72
2017-05-28T03:04:03.980Z,7.80
2017-05-28T03:06:32.262Z,7.98
2017-05-28T03:09:00.560Z,7.02
2017-05-28T03:11:28.835Z,7.70
2017-05-28T03:13:57.128Z,7.64
2017-05-28T03:16:25.407Z,7.62
2017-05-28T03:18:53.705Z,8.64
2017-05-28T03:21:22.060Z,7.94
2017-05-28T03:23:50.436Z,8.60
2017-05-28T03:26:18.811Z,9.26
2017-05-28T03:28:47.192Z,7.68
2017-05-28T03:31:15.490Z,8.54
2017-05-28T03:33:43.772Z,9.36
2017-05-28T03:36:12.073Z,7.34
2017-05-28T03:38:40.356Z,8.90
2017-05-28T03:41:08.674Z,9.64
2017-05-28T03:43:36.967Z,8.22
2017-05-28T03:46:05.263Z,8.14
2017-05-28T03:48:33.539Z,8.40
2017-05-28T03:51:01.836Z,7.68
2017-05-28T03:53:30.115Z,9.00
2017-05-28T03:55:58.395Z,8.06
2017-05-28T03:58:26.703Z,8.32
2017-05-28T04:00:54.988Z,7.88
2017-05-28T04:03:23.284Z,7.94
2017-05-28T04:05:51.564Z,7.10
2017-05-28T04:08:19.912Z,9.00
2017-05-28T04:10:48.190Z,9.10
2017-05-28T04:13:16.559Z,7.62
2017-05-28T04:15:44.843Z,6.70
2017-05-28T04:18:13.221Z,6.56
2017-05-28T04:20:41.503Z,7.66
2017-05-28T04:23:09.873Z,6.78
2017-05-28T04:25:38.253Z,7.40
2017-05-28T04:28:07.257Z,5.48
2017-05-28T04:30:35.555Z,6.56
2017-05-28T04:33:03.904Z,6.36
2017-05-28T04:35:32.211Z,6.82
2017-05-28T04:38:00.491Z,6.74
2017-05-28T04:40:28.783Z,8.80
2017-05-28T04:42:57.068Z,7.14
2017-05-28T04:45:25.363Z,6.90
2017-05-28T04:47:53.639Z,6.52
2017-05-28T04:50:21.932Z,9.82
2017-05-28T04:52:50.212Z,7.64
2017-05-28T04:55:18.579Z,6.90
2017-05-28T04:57:46.850Z,6.80
2017-05-28T05:00:15.174Z,6.58
2017-05-28T05:02:44.139Z,8.32
2017-05-28T05:05:12.423Z,6.78
2017-05-28T05:07:40.720Z,6.70
2017-05-28T05:10:09.007Z,6.94
2017-05-28T05:12:37.308Z,7.38
2017-05-28T05:15:05.596Z,6.98
2017-05-28T05:17:33.899Z,7.06
2017-05-28T05:20:02.261Z,6.98
2017-05-28T05:22:30.560Z,7.74
2017-05-28T05:24:58.840Z,7.70
2017-05-28T05:27:27.192Z,7.60
2017-05-28T05:29:55.469Z,7.60
2017-05-28T05:32:24.242Z,7.64
2017-05-28T05:34:52.523Z,7.50
2017-05-28T05:37:21.067Z,7.26
2017-05-28T05:39:49.387Z,9.82
2017-05-28T05:42:17.767Z,7.90
2017-05-28T05:44:46.145Z,7.78
2017-05-28T05:47:14.426Z,9.18
2017-05-28T05:49:42.718Z,7.20
2017-05-28T05:52:11.001Z,7.06
2017-05-28T05:54:39.299Z,7.80
2017-05-28T05:57:07.628Z,8.36
2017-05-28T05:59:35.924Z,7.86
2017-05-28T06:02:04.208Z,8.38
2017-05-28T06:04:32.503Z,8.28
2017-05-28T06:07:00.803Z,9.34
2017-05-28T06:09:29.096Z,8.78
2017-05-28T06:11:57.484Z,7.52
2017-05-28T06:14:25.768Z,8.70
2017-05-28T06:16:54.064Z,7.74
2017-05-28T06:19:22.417Z,8.90
2017-05-28T06:21:50.791Z,8.52
2017-05-28T06:24:19.073Z,8.52
2017-05-28T06:26:47.356Z,7.52
2017-05-28T06:29:15.719Z,7.16
2017-05-28T06:31:44.105Z,7.18
2017-05-28T06:34:12.399Z,7.26
2017-05-28T06:36:40.683Z,7.24
2017-05-28T06:39:09.034Z,6.84
2017-05-28T06:41:37.312Z,6.78
2017-05-28T06:44:05.687Z,6.74
2017-05-28T06:46:34.059Z,8.26
2017-05-28T06:49:02.439Z,7.42
2017-05-28T06:51:30.814Z,6.82
2017-05-28T06:53:59.111Z,6.06
2017-05-28T06:56:27.472Z,7.02
2017-05-28T06:58:55.755Z,7.24
2017-05-28T07:01:24.878Z,6.32
2017-05-28T07:03:53.160Z,5.98
2017-05-28T07:06:21.456Z,5.76
2017-05-28T07:08:49.736Z,6.96
2017-05-28T07:11:18.036Z,6.16
2017-05-28T07:13:46.330Z,6.90
2017-05-28T07:16:14.632Z,6.12
2017-05-28T07:18:43.240Z,6.30
2017-05-28T07:21:11.659Z,6.32
2017-05-28T07:23:39.946Z,5.98
2017-05-28T07:26:08.223Z,7.00
2017-05-28T07:28:36.520Z,6.76
2017-05-28T07:31:04.802Z,6.72
2017-05-28T07:33:33.101Z,16.12
2017-05-28T07:36:01.420Z,6.70
2017-05-28T07:38:29.794Z,6.96
2017-05-28T07:40:58.687Z,6.34
2017-05-28T07:43:26.987Z,6.24
2017-05-28T07:45:55.451Z,5.84
2017-05-28T07:48:23.747Z,5.78
2017-05-28T07:50:52.032Z,6.10
2017-05-28T07:53:20.380Z,5.66
2017-05-28T07:55:48.671Z,8.64
2017-05-28T07:58:17.027Z,7.56
2017-05-28T08:00:45.332Z,6.36
2017-05-28T08:03:13.616Z,6.26
2017-05-28T08:05:41.965Z,5.80
2017-05-28T08:08:10.244Z,6.58
2017-05-28T08:10:38.611Z,5.88
2017-05-28T08:13:06.896Z,7.10
2017-05-28T08:15:35.204Z,6.74
2017-05-28T08:18:03.492Z,5.52
2017-05-28T08:20:31.792Z,5.32
2017-05-28T08:23:00.100Z,5.14
2017-05-28T08:25:28.404Z,5.28
2017-05-28T08:27:56.749Z,4.96
2017-05-28T08:30:25.078Z,5.30
2017-05-28T08:32:53.356Z,4.72
2017-05-28T08:35:21.683Z,5.60
2017-05-28T08:37:50.053Z,5.52
2017-05-28T08:40:18.432Z,4.90
2017-05-28T08:42:46.811Z,5.74
2017-05-28T08:45:15.091Z,4.94
2017-05-28T08:47:43.391Z,4.42
2017-05-28T08:50:11.739Z,5.52
2017-05-28T08:52:40.045Z,5.34
2017-05-28T08:55:08.324Z,5.30
2017-05-28T08:57:36.623Z,5.44
2017-05-28T09:00:04.904Z,6.02
2017-05-28T09:02:33.220Z,5.00
2017-05-28T09:05:01.502Z,4.70
2017-05-28T09:07:29.878Z,5.16
2017-05-28T09:09:58.181Z,5.60
2017-05-28T09:12:26.468Z,4.92
2017-05-28T09:14:54.765Z,5.62
2017-05-28T09:17:23.052Z,5.56
2017-05-28T09:19:51.351Z,4.62
2017-05-28T09:22:19.636Z,4.80
2017-05-28T09:24:47.936Z,4.98
2017-05-28T09:27:16.291Z,4.42
2017-05-28T09:29:44.592Z,5.10
2017-05-28T09:32:12.939Z,4.66
2017-05-28T09:34:41.240Z,4.58
2017-05-28T09:37:09.591Z,4.72
2017-05-28T09:39:37.971Z,5.00
2017-05-28T09:42:06.253Z,5.02
2017-05-28T09:44:34.626Z,4.82
2017-05-28T09:47:02.912Z,4.62
2017-05-28T09:49:31.279Z,4.68
2017-05-28T09:51:59.575Z,5.08
2017-05-28T09:54:28.640Z,5.16
2017-05-28T09:56:56.937Z,4.92
2017-05-28T09:59:25.308Z,4.12
2017-05-28T10:01:53.605Z,4.42
2017-05-28T10:04:22.353Z,4.50
2017-05-28T10:06:50.649Z,5.26
2017-05-28T10:09:18.935Z,4.76
2017-05-28T10:11:47.300Z,4.54
2017-05-28T10:14:15.585Z,3.94
2017-05-28T10:16:44.296Z,4.84
2017-05-28T10:19:12.576Z,4.76
2017-05-28T10:21:40.872Z,4.12
2017-05-28T10:24:09.160Z,4.42
2017-05-28T10:26:38.491Z,7.76
2017-05-28T10:29:06.773Z,4.66
2017-05-28T10:31:35.149Z,4.94
2017-05-28T10:34:03.528Z,4.38
2017-05-28T10:36:32.237Z,3.20
2017-05-28T10:39:00.592Z,5.12
2017-05-28T10:41:28.961Z,5.72
2017-05-28T10:43:57.265Z,5.52
2017-05-28T10:46:25.549Z,4.30
2017-05-28T10:48:53.894Z,3.88
2017-05-28T10:51:22.175Z,4.78
2017-05-28T10:53:50.484Z,4.40
2017-05-28T10:56:18.772Z,4.60
2017-05-28T10:58:47.076Z,5.00
2017-05-28T11:01:15.366Z,4.82
2017-05-28T11:03:43.675Z,4.46
2017-05-28T11:06:11.961Z,11.38
2017-05-28T11:08:40.304Z,5.06
2017-05-28T11:11:08.680Z,6.42
2017-05-28T11:13:37.477Z,4.18
2017-05-28T11:16:05.848Z,3.80
2017-05-28T11:18:34.131Z,4.34
2017-05-28T11:21:02.428Z,3.68
2017-05-28T11:23:30.711Z,3.84
2017-05-28T11:25:59.015Z,3.80
2017-05-28T11:28:27.300Z,3.72
2017-05-28T11:30:55.667Z,3.46
2017-05-28T11:33:23.951Z,3.10
2017-05-28T11:35:52.248Z,4.08
2017-05-28T11:38:20.528Z,3.14
2017-05-28T11:40:48.828Z,3.84
2017-05-28T11:43:17.107Z,3.34
2017-05-28T11:45:45.465Z,3.50
2017-05-28T11:48:13.849Z,3.12
2017-05-28T11:50:42.142Z,3.52
2017-05-28T11:53:10.448Z,4.20
2017-05-28T11:55:38.778Z,3.90
2017-05-28T11:58:07.198Z,3.70
2017-05-28T12:00:35.531Z,3.96
2017-05-28T12:03:03.831Z,4.32
2017-05-28T12:05:32.112Z,4.20
2017-05-28T12:08:00.464Z,3.70
2017-05-28T12:10:28.748Z,5.02
2017-05-28T12:12:58.165Z,4.96
2017-05-28T12:15:26.512Z,4.80
2017-05-28T12:17:54.816Z,4.40
2017-05-28T12:20:23.169Z,4.10
2017-05-28T12:22:51.543Z,5.22
2017-05-28T12:25:19.832Z,5.08
2017-05-28T12:27:48.205Z,5.32
2017-05-28T12:30:16.483Z,4.62
2017-05-28T12:32:44.763Z,4.58
2017-05-28T12:35:13.128Z,4.28
2017-05-28T12:37:41.411Z,4.48
2017-05-28T12:40:09.711Z,5.14
2017-05-28T12:42:38.064Z,6.00
2017-05-28T12:45:06.436Z,4.76
2017-05-28T12:47:34.721Z,3.90
2017-05-28T12:50:03.111Z,5.24
2017-05-28T12:52:31.407Z,4.44
2017-05-28T12:54:59.707Z,4.60
2017-05-28T12:57:28.024Z,4.22
2017-05-28T12:59:56.329Z,4.14
2017-05-28T13:02:24.727Z,5.82
2017-05-28T13:04:53.156Z,3.94
2017-05-28T13:07:21.536Z,4.12
2017-05-28T13:09:49.828Z,4.14
2017-05-28T13:12:18.199Z,3.88
2017-05-28T13:14:46.483Z,4.44
2017-05-28T13:17:14.785Z,4.00
2017-05-28T13:19:43.076Z,4.66
2017-05-28T13:22:11.372Z,3.92
2017-05-28T13:24:39.652Z,4.22
2017-05-28T13:27:07.947Z,4.02
2017-05-28T13:29:36.325Z,3.78
2017-05-28T13:32:04.700Z,4.62
2017-05-28T13:34:33.500Z,4.02
2017-05-28T13:37:01.805Z,4.30
2017-05-28T13:39:30.090Z,4.44
2017-05-28T13:41:58.416Z,4.70
2017-05-28T13:44:26.801Z,3.92
2017-05-28T13:46:55.172Z,3.78
2017-05-28T13:49:23.480Z,4.96
2017-05-28T13:51:51.836Z,3.96
2017-05-28T13:54:20.216Z,4.40
2017-05-28T13:56:48.584Z,4.22
2017-05-28T13:59:16.880Z,4.10
2017-05-28T14:01:45.166Z,4.18
2017-05-28T14:04:13.516Z,4.44
2017-05-28T14:06:41.804Z,3.64
2017-05-28T14:09:10.111Z,4.40
2017-05-28T14:11:38.550Z,4.08
2017-05-28T14:14:06.919Z,3.80
2017-05-28T14:16:35.204Z,3.84
2017-05-28T14:19:03.576Z,4.20
2017-05-28T14:21:31.951Z,4.74
2017-05-28T14:24:00.336Z,4.58
2017-05-28T14:26:28.619Z,4.38
2017-05-28T14:28:56.904Z,4.52
2017-05-28T14:31:25.201Z,4.22
2017-05-28T14:33:53.487Z,4.12
2017-05-28T14:36:21.816Z,4.50
2017-05-28T14:38:50.197Z,11.16
2017-05-28T14:41:18.567Z,4.78
2017-05-28T14:43:46.860Z,4.94
2017-05-28T14:46:15.159Z,5.60
2017-05-28T14:48:43.449Z,4.18
2017-05-28T14:51:11.776Z,5.06
2017-05-28T14:53:40.056Z,5.88
2017-05-28T14:56:08.360Z,4.38
2017-05-28T14:58:36.704Z,5.56
2017-05-28T15:01:05.019Z,3.88
2017-05-28T15:03:33.304Z,4.22
2017-05-28T15:06:01.583Z,4.58
2017-05-28T15:08:29.888Z,4.24
2017-05-28T15:10:58.191Z,4.50
2017-05-28T15:13:26.487Z,5.08
2017-05-28T15:15:54.773Z,6.46
2017-05-28T15:18:23.128Z,5.04
2017-05-28T15:20:51.415Z,4.64
2017-05-28T15:23:19.744Z,4.68
2017-05-28T15:25:48.051Z,5.20
2017-05-28T15:28:16.429Z,5.52
2017-05-28T15:30:44.804Z,4.60
2017-05-28T15:33:13.104Z,5.22
2017-05-28T15:35:41.388Z,4.48
2017-05-28T15:38:10.352Z,4.62
2017-05-28T15:40:38.782Z,4.58
2017-05-28T15:43:07.519Z,3.66
2017-05-28T15:45:35.825Z,4.90
2017-05-28T15:48:04.167Z,4.36
2017-05-28T15:50:32.544Z,4.14
2017-05-28T15:53:00.919Z,3.86
2017-05-28T15:55:29.223Z,4.10
2017-05-28T15:57:57.508Z,3.84
2017-05-28T16:00:25.803Z,4.52
2017-05-28T16:02:54.093Z,3.64
2017-05-28T16:05:22.401Z,3.40
2017-05-28T16:07:50.692Z,3.36
2017-05-28T16:10:19.004Z,3.56
2017-05-28T16:12:47.297Z,3.52
2017-05-28T16:15:15.656Z,3.22
2017-05-28T16:17:43.992Z,3.84
2017-05-28T16:20:12.288Z,4.88
2017-05-28T16:22:40.592Z,3.52
2017-05-28T16:25:08.880Z,3.86
2017-05-28T16:27:37.181Z,3.52
2017-05-28T16:30:05.480Z,4.06
2017-05-28T16:32:33.853Z,4.50
2017-05-28T16:35:02.160Z,3.86
2017-05-28T16:37:30.505Z,4.20
2017-05-28T16:39:58.803Z,3.74
2017-05-28T16:42:27.112Z,4.18
2017-05-28T16:44:55.440Z,11.26
2017-05-28T16:47:24.425Z,13.48
2017-05-28T16:49:52.716Z,7.82
2017-05-28T16:52:21.003Z,11.58
2017-05-28T16:54:49.304Z,9.26
2017-05-28T16:57:17.583Z,4.82
2017-05-28T16:59:45.907Z,4.84
2017-05-28T17:02:14.456Z,4.86
2017-05-28T17:04:42.762Z,5.24
2017-05-28T17:07:11.051Z,11.30
2017-05-28T17:09:39.412Z,4.62
2017-05-28T17:12:08.301Z,5.58
2017-05-28T17:14:36.623Z,7.86
2017-05-28T17:17:04.964Z,4.68
2017-05-28T17:19:33.288Z,4.72
2017-05-28T17:22:01.577Z,4.72
2017-05-28T17:24:29.865Z,4.50
2017-05-28T17:26:58.268Z,4.86
2017-05-28T17:29:26.647Z,5.20
2017-05-28T17:31:54.956Z,4.68
2017-05-28T17:34:23.305Z,6.10
2017-05-28T17:36:51.603Z,7.58
2017-05-28T17:39:19.882Z,5.40
2017-05-28T17:41:48.181Z,4.88
2017-05-28T17:44:16.513Z,5.62
2017-05-28T17:46:44.885Z,5.84
2017-05-28T17:49:13.229Z,6.16
2017-05-28T17:51:41.544Z,5.44
2017-05-28T17:54:09.852Z,5.76
2017-05-28T17:56:38.204Z,4.60
2017-05-28T17:59:06.499Z,4.62
2017-05-28T18:01:34.784Z,5.30
2017-05-28T18:04:03.165Z,5.06
2017-05-28T18:06:31.447Z,4.64
2017-05-28T18:08:59.743Z,5.44
2017-05-28T18:11:28.028Z,6.40
2017-05-28T18:13:56.328Z,5.70
2017-05-28T18:16:24.617Z,5.86
2017-05-28T18:18:52.915Z,5.90
2017-05-28T18:21:21.199Z,5.74
2017-05-28T18:23:50.322Z,5.28
2017-05-28T18:26:18.608Z,5.34
2017-05-28T18:28:47.013Z,7.52
2017-05-28T18:31:15.387Z,10.04
2017-05-28T18:33:43.691Z,9.46
2017-05-28T18:36:12.127Z,8.52
2017-05-28T18:38:40.516Z,7.94
2017-05-28T18:41:08.904Z,6.96
2017-05-28T18:43:37.271Z,6.68
2017-05-28T18:46:05.572Z,6.78
2017-05-28T18:48:33.852Z,6.12
2017-05-28T18:51:02.209Z,8.28
2017-05-28T18:53:31.408Z,7.30
2017-05-28T18:55:59.784Z,6.72
2017-05-28T18:58:28.064Z,5.86
2017-05-28T19:00:56.444Z,5.96
2017-05-28T19:03:24.723Z,5.94
2017-05-28T19:05:53.021Z,6.38
2017-05-28T19:08:21.364Z,6.26
2017-05-28T19:10:49.739Z,6.56
2017-05-28T19:13:18.121Z,6.44
2017-05-28T19:15:46.404Z,6.38
2017-05-28T19:18:14.772Z,6.32
2017-05-28T19:20:43.893Z,5.68
2017-05-28T19:23:12.251Z,6.98
2017-05-28T19:25:40.624Z,5.88
2017-05-28T19:28:08.929Z,5.80
2017-05-28T19:30:37.212Z,6.48
2017-05-28T19:33:05.557Z,5.78
2017-05-28T19:35:33.938Z,5.60
2017-05-28T19:38:02.315Z,5.72
2017-05-28T19:40:30.596Z,6.40
2017-05-28T19:42:58.969Z,5.68
2017-05-28T19:45:27.344Z,6.74
2017-05-28T19:47:55.663Z,5.52
2017-05-28T19:50:24.607Z,5.28
2017-05-28T19:52:52.889Z,6.74
2017-05-28T19:55:21.187Z,6.18
2017-05-28T19:57:49.484Z,7.48
2017-05-28T20:00:17.784Z,5.68
2017-05-28T20:02:46.063Z,5.20
2017-05-28T20:05:14.475Z,6.46
2017-05-28T20:07:42.755Z,6.68
2017-05-28T20:10:11.056Z,5.24
2017-05-28T20:12:39.407Z,5.22
2017-05-28T20:15:07.707Z,5.74
2017-05-28T20:17:36.056Z,5.24
2017-05-28T20:20:04.437Z,6.20
2017-05-28T20:22:32.720Z,4.94
2017-05-28T20:25:01.259Z,5.42
2017-05-28T20:27:29.564Z,5.26
2017-05-28T20:29:57.943Z,5.90
2017-05-28T20:32:26.244Z,5.68
2017-05-28T20:34:55.393Z,5.10
2017-05-28T20:37:23.697Z,5.64
2017-05-28T20:39:51.980Z,5.58
2017-05-28T20:42:20.277Z,7.80
2017-05-28T20:44:48.556Z,5.52
2017-05-28T20:47:16.903Z,6.20
2017-05-28T20:49:45.183Z,5.30
2017-05-28T20:52:13.480Z,5.96
2017-05-28T20:54:41.763Z,6.76
2017-05-28T20:57:10.723Z,5.34
2017-05-28T20:59:39.007Z,5.66
2017-05-28T21:02:07.695Z,5.30
2017-05-28T21:04:35.997Z,5.72
2017-05-28T21:07:04.287Z,5.00
2017-05-28T21:09:32.589Z,5.90
2017-05-28T21:12:00.892Z,5.94
2017-05-28T21:14:29.188Z,5.00
2017-05-28T21:16:57.536Z,5.44
2017-05-28T21:19:25.832Z,5.74
2017-05-28T21:21:54.191Z,5.78
2017-05-28T21:24:22.492Z,5.42
2017-05-28T21:26:50.773Z,5.50
2017-05-28T21:29:19.119Z,6.10
2017-05-28T21:31:47.500Z,5.58
2017-05-28T21:34:15.883Z,5.88
2017-05-28T21:36:44.259Z,5.58
2017-05-28T21:39:12.539Z,6.04
2017-05-28T21:41:40.843Z,5.56
2017-05-28T21:44:09.192Z,5.38
2017-05-28T21:46:37.499Z,5.88
2017-05-28T21:49:05.780Z,6.32
2017-05-28T21:51:34.115Z,6.04
2017-05-28T21:54:02.492Z,5.52
2017-05-28T21:56:30.872Z,6.28
2017-05-28T21:58:59.153Z,6.94
2017-05-28T22:01:27.471Z,5.84
2017-05-28T22:03:55.755Z,6.22
2017-05-28T22:06:24.035Z,5.40
2017-05-28T22:08:52.352Z,5.64
2017-05-28T22:11:20.635Z,6.38
2017-05-28T22:13:49.008Z,6.22
2017-05-28T22:16:17.288Z,5.86
2017-05-28T22:18:45.583Z,5.88
2017-05-28T22:21:13.864Z,6.08
2017-05-28T22:23:42.169Z,6.34
2017-05-28T22:26:10.452Z,6.70
2017-05-28T22:28:38.873Z,6.48
2017-05-28T22:31:07.157Z,5.86
2017-05-28T22:33:35.624Z,6.14
2017-05-28T22:36:04.000Z,5.64
2017-05-28T22:38:32.284Z,6.00
2017-05-28T22:41:00.656Z,6.22
2017-05-28T22:43:28.939Z,6.68
2017-05-28T22:45:57.232Z,6.50
2017-05-28T22:48:25.586Z,6.28
2017-05-28T22:50:53.884Z,6.14
2017-05-28T22:53:22.168Z,6.94
2017-05-28T22:55:50.516Z,7.06
2017-05-28T22:58:18.800Z,6.18
2017-05-28T23:00:47.079Z,5.72
2017-05-28T23:03:15.445Z,6.42
2017-05-28T23:05:43.824Z,6.64
2017-05-28T23:08:12.120Z,6.62
2017-05-28T23:10:40.396Z,6.70
2017-05-28T23:13:08.758Z,6.80
2017-05-28T23:15:37.043Z,5.66
2017-05-28T23:18:05.344Z,7.46
2017-05-28T23:20:33.620Z,7.24
2017-05-28T23:23:01.921Z,6.68
2017-05-28T23:25:30.199Z,6.82
2017-05-28T23:27:58.528Z,6.86
2017-05-28T23:30:26.883Z,8.10
2017-05-28T23:32:55.263Z,7.62
2017-05-28T23:35:23.556Z,7.14
2017-05-28T23:37:51.840Z,7.06
2017-05-28T23:40:20.144Z,7.36
2017-05-28T23:42:48.937Z,7.20
2017-05-28T23:45:17.256Z,7.20
2017-05-28T23:47:45.635Z,6.08
2017-05-28T23:50:13.936Z,7.10
2017-05-28T23:52:42.216Z,7.78
2017-05-28T23:55:10.516Z,8.24
2017-05-28T23:57:38.841Z,7.88
